Time;durP1;ratioP1;P1;durP2;ratioP2;P2;SDS_P1;SDS_P2;PMS_P1;PMS_P2;Temp;Humidity;BMP_temperature;BMP_pressure;BME280_temperature;BME280_humidity;BME280_pressure;Samples;Min_cycle;Max_cycle;Signal;HPM_P1;HPM_P2
2023/01/03 00:02:04;;;;;;;4.45;2.30;;;;;;;9.20;83.91;101621.97;4957320;29;20206;-74
2023/01/03 00:04:33;;;;;;;6.88;2.75;;;;;;;9.10;84.63;101627.59;4956450;29;20223;-74
2023/01/03 00:07:04;;;;;;;3.60;2.25;;;;;;;9.16;84.32;101629.59;4957156;29;20639;-73
2023/01/03 00:09:33;;;;;;;5.30;2.85;;;;;;;9.16;84.35;101640.41;4969062;29;20259;-75
2023/01/03 00:14:52;;;;;;;5.38;3.70;;;;;;;9.32;83.97;101644.91;4973406;28;20224;-76
2023/01/03 00:17:21;;;;;;;5.32;3.40;;;;;;;9.41;83.37;101656.50;4975023;28;20263;-76
2023/01/03 00:19:50;;;;;;;4.22;3.03;;;;;;;9.40;83.50;101650.25;4974348;28;20191;-76
2023/01/03 00:22:22;;;;;;;11.20;3.05;;;;;;;9.34;83.89;101655.53;4972028;29;20232;-74
2023/01/03 00:24:53;;;;;;;3.55;2.92;;;;;;;9.43;83.58;101659.88;4956856;29;20226;-77
2023/01/03 00:27:22;;;;;;;6.80;3.63;;;;;;;9.48;83.27;101654.78;4959687;29;20204;-75
2023/01/03 00:29:51;;;;;;;5.80;3.58;;;;;;;9.52;81.88;101664.22;4956684;29;20570;-75
2023/01/03 00:32:20;;;;;;;3.50;2.30;;;;;;;9.45;81.93;101664.06;4958459;28;20384;-73
2023/01/03 00:34:49;;;;;;;7.95;3.33;;;;;;;9.47;82.12;101682.81;4957276;28;20664;-74
2023/01/03 00:37:19;;;;;;;4.07;2.65;;;;;;;9.48;82.20;101681.81;4957980;28;20620;-76
2023/01/03 00:39:50;;;;;;;4.15;3.63;;;;;;;9.48;82.75;101684.50;4954328;28;20582;-75
2023/01/03 00:42:19;;;;;;;3.65;2.40;;;;;;;9.50;82.22;101690.56;4941780;28;20208;-75
2023/01/03 00:44:48;;;;;;;5.57;2.92;;;;;;;9.50;82.09;101693.25;4958504;28;20212;-76
2023/01/03 00:47:17;;;;;;;3.65;2.75;;;;;;;9.47;82.09;101699.88;4956260;28;20206;-76
2023/01/03 00:49:46;;;;;;;4.72;3.20;;;;;;;9.58;81.21;101701.34;4957004;28;20223;-77
2023/01/03 00:52:15;;;;;;;3.35;2.47;;;;;;;9.57;81.06;101699.66;4957518;29;20211;-74
2023/01/03 00:54:44;;;;;;;4.53;2.88;;;;;;;9.52;81.01;101702.03;4956182;29;20220;-75
2023/01/03 00:57:15;;;;;;;3.80;2.45;;;;;;;9.53;80.92;101709.16;4955693;29;20199;-76
2023/01/03 00:59:44;;;;;;;7.07;3.45;;;;;;;9.52;81.34;101707.44;4955912;29;20184;-77
2023/01/03 01:02:13;;;;;;;5.43;3.03;;;;;;;9.47;81.13;101715.25;4955885;28;20210;-75
2023/01/03 01:04:42;;;;;;;4.22;2.22;;;;;;;9.45;81.48;101712.69;4955046;28;20515;-76
2023/01/03 01:07:11;;;;;;;4.47;2.53;;;;;;;9.41;81.89;101715.94;4955287;29;20721;-75
2023/01/03 01:09:40;;;;;;;4.07;2.85;;;;;;;9.31;80.75;101715.28;4955135;29;20562;-74
2023/01/03 01:12:09;;;;;;;2.45;2.00;;;;;;;9.18;80.77;101726.66;4951870;29;20604;-74
2023/01/03 01:14:39;;;;;;;10.60;2.90;;;;;;;9.12;80.00;101730.88;4954288;28;20649;-74
2023/01/03 01:17:09;;;;;;;4.22;3.40;;;;;;;9.01;78.62;101733.94;4954579;29;20274;-74
2023/01/03 01:19:41;;;;;;;6.15;2.97;;;;;;;8.95;79.12;101742.75;4955174;29;20648;-74
2023/01/03 01:22:11;;;;;;;2.88;2.03;;;;;;;8.83;78.96;101749.47;4955287;29;20211;-74
2023/01/03 01:24:41;;;;;;;2.70;1.90;;;;;;;8.81;79.12;101756.09;4954799;29;20211;-74
2023/01/03 01:27:10;;;;;;;4.13;1.80;;;;;;;8.85;77.58;101763.66;4955252;28;20196;-74
2023/01/03 01:29:41;;;;;;;1.90;1.58;;;;;;;8.77;77.41;101770.91;4955089;28;20737;-73
2023/01/03 01:32:10;;;;;;;2.47;1.50;;;;;;;8.77;76.87;101770.91;4952642;29;20239;-73
2023/01/03 01:34:39;;;;;;;4.95;1.80;;;;;;;8.71;76.77;101772.44;4955386;28;20212;-75
2023/01/03 01:37:08;;;;;;;5.63;2.95;;;;;;;8.61;77.11;101772.63;4957478;29;20211;-75
2023/01/03 01:39:37;;;;;;;3.90;2.08;;;;;;;8.49;77.98;101779.34;4944073;29;20214;-74
2023/01/03 01:45:01;;;;;;;3.40;2.00;;;;;;;8.41;77.39;101775.78;4969192;28;20223;-74
2023/01/03 01:47:38;;;;;;;4.40;1.90;;;;;;;8.33;77.50;101782.00;4961724;28;20188;-75
2023/01/03 01:50:19;;;;;;;4.47;2.00;;;;;;;8.29;77.58;101789.59;4952116;29;20490;-73
2023/01/03 01:52:54;;;;;;;9.63;2.05;;;;;;;8.22;76.88;101793.09;4952922;29;20202;-74
2023/01/03 01:55:26;;;;;;;3.75;1.83;;;;;;;8.11;77.60;101802.31;4946503;28;20267;-74
2023/01/03 01:57:56;;;;;;;5.00;1.83;;;;;;;8.10;77.70;101800.63;4955865;28;20452;-73
2023/01/03 02:00:26;;;;;;;3.35;2.00;;;;;;;8.00;77.61;101802.63;4957009;28;20188;-73
2023/01/03 02:02:56;;;;;;;3.55;1.85;;;;;;;7.93;77.78;101795.38;4961689;28;20200;-74
2023/01/03 02:05:27;;;;;;;3.17;1.70;;;;;;;7.86;77.73;101804.09;4965695;29;20231;-73
2023/01/03 02:07:57;;;;;;;5.00;1.90;;;;;;;7.90;77.71;101803.75;4951202;29;20200;-74
2023/01/03 02:10:56;;;;;;;2.30;2.10;;;;;;;7.80;77.81;101809.28;4968509;29;20392;-74
2023/01/03 02:13:33;;;;;;;1.98;1.50;;;;;;;7.72;78.75;101815.47;4969667;28;20605;-74
2023/01/03 02:16:20;;;;;;;2.85;1.35;;;;;;;7.62;78.22;101814.75;4970972;29;20227;-76
2023/01/03 02:18:58;;;;;;;12.38;1.80;;;;;;;7.65;77.74;101816.31;4973374;28;20184;-75
2023/01/03 02:21:59;;;;;;;4.30;1.90;;;;;;;7.63;77.52;101821.84;4969625;29;20208;-76
2023/01/03 02:25:11;;;;;;;7.93;2.03;;;;;;;7.55;77.80;101823.66;4970536;28;20475;-75
2023/01/03 02:28:14;;;;;;;4.35;2.17;;;;;;;7.44;78.13;101830.16;4948212;29;20255;-74
2023/01/03 02:30:50;;;;;;;2.75;1.60;;;;;;;7.45;78.03;101833.69;4959585;29;20247;-74
2023/01/03 02:33:29;;;;;;;2.10;1.40;;;;;;;7.37;78.10;101837.16;4961499;29;20196;-74
2023/01/03 02:36:05;;;;;;;5.88;2.22;;;;;;;7.37;77.53;101842.53;4962280;29;20215;-74
2023/01/03 02:38:43;;;;;;;5.72;1.85;;;;;;;7.36;76.94;101843.53;4957023;29;20733;-75
2023/01/03 02:41:41;;;;;;;2.15;1.73;;;;;;;7.27;77.51;101850.72;4939277;29;20200;-74
2023/01/03 02:44:18;;;;;;;5.15;2.00;;;;;;;7.25;77.19;101844.66;4941951;29;20317;-73
2023/01/03 02:46:52;;;;;;;2.47;1.50;;;;;;;7.20;77.15;101848.84;4955118;29;20202;-74
2023/01/03 02:49:26;;;;;;;4.72;1.35;;;;;;;7.16;77.19;101853.69;4955845;29;20710;-74
2023/01/03 02:52:00;;;;;;;6.63;2.00;;;;;;;7.11;76.89;101845.25;4955533;29;20397;-74
2023/01/03 02:54:36;;;;;;;3.65;1.50;;;;;;;7.08;77.13;101853.59;4954792;28;20629;-75
2023/01/03 02:57:12;;;;;;;3.13;2.13;;;;;;;7.01;77.48;101849.88;4953278;28;20202;-74
2023/01/03 02:59:46;;;;;;;3.72;1.67;;;;;;;7.03;77.30;101855.06;4957525;29;20195;-74
2023/01/03 03:02:19;;;;;;;3.55;1.20;;;;;;;7.01;77.63;101866.00;4956394;29;20186;-73
2023/01/03 03:04:55;;;;;;;4.45;2.35;;;;;;;6.88;78.32;101870.91;4955798;28;20599;-74
2023/01/03 03:07:27;;;;;;;5.88;1.55;;;;;;;6.86;78.89;101872.94;4958976;28;20199;-74
2023/01/03 03:15:39;;;;;;;1.92;1.73;;;;;;;6.47;81.91;101881.31;4957204;28;20242;-75
2023/01/03 03:18:16;;;;;;;2.20;1.63;;;;;;;6.52;82.61;101886.22;4958574;29;20748;-74
2023/01/03 03:26:28;;;;;;;5.22;1.83;;;;;;;6.48;81.32;101896.44;4958727;28;20203;-73
2023/01/03 03:29:03;;;;;;;3.20;1.75;;;;;;;6.45;80.41;101891.34;4959524;28;20219;-74
2023/01/03 03:31:36;;;;;;;4.30;1.80;;;;;;;6.38;80.44;101894.81;4971203;29;20196;-75
2023/01/03 03:34:13;;;;;;;5.18;2.22;;;;;;;6.34;80.06;101891.53;4974109;28;20216;-74
2023/01/03 03:36:50;;;;;;;9.43;2.22;;;;;;;6.32;79.68;101898.94;4973518;29;20234;-74
2023/01/03 03:45:14;;;;;;;9.70;2.30;;;;;;;6.24;80.04;101908.75;4973823;28;20248;-75
2023/01/03 03:47:49;;;;;;;4.25;1.65;;;;;;;6.18;79.88;101898.59;4975035;29;20202;-75
2023/01/03 03:50:27;;;;;;;11.25;2.22;;;;;;;6.18;79.88;101903.97;4968930;29;20202;-74
2023/01/03 03:53:00;;;;;;;2.75;1.73;;;;;;;6.09;79.97;101913.78;4958251;29;20666;-74
2023/01/03 03:55:39;;;;;;;3.33;2.53;;;;;;;6.08;80.36;101910.22;4960991;28;20216;-75
2023/01/03 03:58:13;;;;;;;6.25;2.75;;;;;;;6.07;80.17;101913.91;4962692;28;20204;-74
2023/01/03 04:00:48;;;;;;;3.15;2.47;;;;;;;6.01;80.47;101919.03;4959196;29;20208;-74
2023/01/03 04:03:20;;;;;;;5.72;2.22;;;;;;;5.97;80.71;101918.47;4942264;29;20200;-75
2023/01/03 04:05:56;;;;;;;5.32;1.77;;;;;;;5.94;80.89;101909.88;4956390;28;20211;-72
2023/01/03 04:08:25;;;;;;;3.38;2.00;;;;;;;5.87;81.23;101916.81;4960131;28;20227;-72
2023/01/03 04:11:04;;;;;;;6.22;2.03;;;;;;;5.80;81.31;101919.22;4957586;28;20226;-76
2023/01/03 04:13:35;;;;;;;6.30;2.22;;;;;;;5.72;81.67;101923.63;4958329;29;20188;-74
2023/01/03 04:16:06;;;;;;;3.70;2.17;;;;;;;5.64;82.60;101933.25;4958329;29;20228;-74
2023/01/03 04:18:35;;;;;;;6.65;2.70;;;;;;;5.61;82.50;101932.72;4957468;29;20220;-75
2023/01/03 04:21:07;;;;;;;1.95;1.65;;;;;;;5.58;83.29;101939.19;4958033;28;20287;-75
2023/01/03 04:23:36;;;;;;;4.35;2.85;;;;;;;5.61;83.96;101949.66;4958650;29;20259;-73
2023/01/03 04:26:05;;;;;;;6.97;2.65;;;;;;;5.66;83.86;101941.19;4958069;29;20291;-73
2023/01/03 04:28:35;;;;;;;3.17;2.88;;;;;;;5.63;84.04;101953.03;4957956;29;20207;-75
2023/01/03 04:31:04;;;;;;;6.55;2.63;;;;;;;5.67;84.07;101946.38;4957930;29;20220;-73
2023/01/03 04:33:34;;;;;;;4.53;2.58;;;;;;;5.75;83.67;101956.41;4957608;29;20224;-74
2023/01/03 04:36:03;;;;;;;4.68;2.30;;;;;;;5.59;84.08;101958.84;4957500;28;20299;-76
2023/01/03 04:38:34;;;;;;;3.15;2.00;;;;;;;5.59;84.24;101962.38;4937233;29;20200;-75
2023/01/03 04:41:09;;;;;;;3.25;2.10;;;;;;;5.47;84.79;101974.25;4940548;29;20215;-75
2023/01/03 04:46:35;;;;;;;3.15;2.72;;;;;;;5.40;85.90;101988.41;4934503;29;20219;-74
2023/01/03 04:49:08;;;;;;;6.45;2.65;;;;;;;5.53;85.58;101988.94;4957918;29;20192;-76
2023/01/03 04:51:38;;;;;;;3.80;2.08;;;;;;;5.42;85.62;101995.31;4957926;29;20282;-76
2023/01/03 04:54:09;;;;;;;7.72;2.83;;;;;;;5.29;86.39;101996.59;4958404;28;20572;-74
2023/01/03 04:56:40;;;;;;;3.75;2.60;;;;;;;5.31;86.63;101995.47;4958111;29;20331;-76
2023/01/03 04:59:09;;;;;;;5.22;2.50;;;;;;;5.38;86.44;102004.63;4943592;29;20259;-75
2023/01/03 05:01:39;;;;;;;4.25;2.90;;;;;;;5.32;86.68;102007.06;4958044;28;20287;-76
2023/01/03 05:04:20;;;;;;;3.88;2.92;;;;;;;5.40;86.31;102008.03;4957401;28;20343;-74
2023/01/03 05:06:52;;;;;;;3.70;3.35;;;;;;;5.39;86.05;102005.50;4962955;28;20255;-75
2023/01/03 05:09:25;;;;;;;6.30;4.65;;;;;;;5.31;86.48;102005.34;4968365;29;20203;-72
2023/01/03 05:11:55;;;;;;;6.15;2.70;;;;;;;5.38;86.20;102017.22;4965905;29;20192;-74
2023/01/03 05:14:24;;;;;;;4.00;2.50;;;;;;;5.36;86.27;102016.53;4962887;28;20231;-73
2023/01/03 05:16:53;;;;;;;6.57;2.60;;;;;;;5.27;86.50;102023.59;4940630;28;20204;-74
2023/01/03 05:19:23;;;;;;;6.95;2.90;;;;;;;5.26;86.93;102029.94;4957655;29;20255;-72
2023/01/03 05:27:29;;;;;;;4.45;2.67;;;;;;;5.27;87.42;102030.78;4956144;29;20649;-74
2023/01/03 05:29:59;;;;;;;3.42;2.22;;;;;;;5.37;86.93;102029.81;4943847;29;20204;-74
2023/01/03 05:32:30;;;;;;;4.65;2.53;;;;;;;5.34;87.49;102031.91;4940585;29;20200;-74
2023/01/03 05:34:59;;;;;;;4.25;3.08;;;;;;;5.33;87.65;102031.06;4940908;28;20710;-73
2023/01/03 05:37:29;;;;;;;8.43;3.20;;;;;;;5.40;87.63;102024.16;4944242;29;20207;-73
2023/01/03 05:40:05;;;;;;;4.45;2.88;;;;;;;5.38;87.95;102026.13;4940730;29;20214;-73
2023/01/03 05:42:34;;;;;;;11.15;3.10;;;;;;;5.36;88.17;102030.78;4939526;29;20208;-73
2023/01/03 05:45:04;;;;;;;11.45;3.60;;;;;;;5.44;88.27;102036.28;4941014;29;20318;-74
2023/01/03 05:47:40;;;;;;;4.20;3.08;;;;;;;5.38;88.67;102039.53;4939552;29;20188;-74
2023/01/03 05:50:10;;;;;;;3.92;3.20;;;;;;;5.32;89.09;102034.75;4956978;29;20239;-73
2023/01/03 05:52:40;;;;;;;13.30;3.58;;;;;;;5.29;89.66;102035.00;4953878;28;20199;-74
2023/01/03 05:55:12;;;;;;;5.82;3.78;;;;;;;5.30;89.42;102043.91;4941048;29;20222;-74
2023/01/03 05:57:42;;;;;;;9.05;3.50;;;;;;;5.31;89.35;102049.16;4945526;28;20200;-73
2023/01/03 06:00:14;;;;;;;4.35;2.88;;;;;;;5.18;89.80;102048.59;4954242;28;20206;-73
2023/01/03 06:02:44;;;;;;;3.67;2.90;;;;;;;5.25;89.34;102049.72;4953018;28;20290;-75
2023/01/03 06:05:14;;;;;;;5.55;2.90;;;;;;;5.23;89.88;102051.66;4943131;29;20227;-74
2023/01/03 06:07:44;;;;;;;4.07;2.88;;;;;;;5.16;89.38;102056.78;4959340;28;20188;-73
2023/01/03 06:10:17;;;;;;;8.13;3.85;;;;;;;5.18;89.57;102057.47;4940546;29;20296;-74
2023/01/03 06:12:47;;;;;;;6.85;2.85;;;;;;;5.15;89.06;102060.44;4940304;28;20202;-75
2023/01/03 06:15:17;;;;;;;6.20;2.97;;;;;;;5.13;89.04;102056.19;4956848;28;20690;-76
2023/01/03 06:18:01;;;;;;;9.02;3.10;;;;;;;5.13;89.05;102061.56;4956295;28;20200;-74
2023/01/03 06:20:31;;;;;;;6.38;3.03;;;;;;;5.08;89.45;102063.81;4942927;29;20562;-75
2023/01/03 06:23:01;;;;;;;4.95;2.85;;;;;;;5.05;89.60;102074.81;4939765;29;20227;-74
2023/01/03 06:25:45;;;;;;;4.75;2.35;;;;;;;4.98;89.73;102073.69;4939564;28;20223;-75
2023/01/03 06:28:15;;;;;;;7.30;2.83;;;;;;;4.91;89.88;102070.69;4948011;29;20231;-76
2023/01/03 06:30:45;;;;;;;9.50;2.72;;;;;;;4.91;90.36;102072.50;4946266;29;20571;-73
2023/01/03 06:33:15;;;;;;;4.65;2.42;;;;;;;4.88;90.37;102078.16;4963060;28;20192;-75
2023/01/03 06:35:44;;;;;;;4.07;2.75;;;;;;;4.86;90.75;102080.13;4944244;29;20243;-76
2023/01/03 06:38:14;;;;;;;4.07;3.25;;;;;;;4.74;91.03;102080.22;4948078;28;20208;-74
2023/01/03 06:40:51;;;;;;;6.88;2.97;;;;;;;4.78;91.63;102086.19;4960801;28;20196;-76
2023/01/03 06:43:20;;;;;;;6.07;4.03;;;;;;;4.79;91.54;102080.66;4944414;29;20306;-75
2023/01/03 06:54:22;;;;;;;6.10;3.25;;;;;;;4.76;91.31;102091.66;4935949;28;20309;-76
2023/01/03 06:56:55;;;;;;;5.30;3.90;;;;;;;4.75;91.99;102095.31;4937915;28;20271;-75
2023/01/03 06:59:26;;;;;;;5.35;2.65;;;;;;;4.65;92.15;102099.81;4938664;29;20208;-74
2023/01/03 07:01:58;;;;;;;4.78;3.22;;;;;;;4.72;92.42;102105.47;4937841;28;20215;-74
2023/01/03 07:04:29;;;;;;;11.48;3.92;;;;;;;4.70;92.55;102110.97;4941730;29;20725;-72
2023/01/03 07:06:59;;;;;;;7.47;4.57;;;;;;;4.76;92.79;102110.44;4957379;28;20207;-75
2023/01/03 07:09:29;;;;;;;9.18;3.95;;;;;;;4.70;93.07;102119.00;4942822;29;20194;-72
2023/01/03 07:13:57;;;;;;;5.93;4.20;;;;;;;4.73;93.28;102121.44;4939205;29;20192;-73
2023/01/03 07:14:52;;;;;;;8.82;3.80;;;;;;;4.64;93.56;102124.94;4935789;29;20224;-75
2023/01/03 07:17:25;;;;;;;13.70;4.25;;;;;;;4.52;94.52;102119.78;4935085;29;20200;-74
2023/01/03 07:19:56;;;;;;;7.75;4.53;;;;;;;4.56;94.89;102129.25;4955395;28;20192;-72
2023/01/03 07:22:26;;;;;;;6.78;4.65;;;;;;;4.60;94.96;102128.84;4940696;28;20223;-73
2023/01/03 07:24:58;;;;;;;15.25;4.80;;;;;;;4.64;94.59;102140.19;4936741;29;20239;-73
2023/01/03 07:27:31;;;;;;;11.30;4.75;;;;;;;4.60;94.92;102136.88;4937316;29;20193;-74
2023/01/03 07:30:02;;;;;;;7.25;4.65;;;;;;;4.69;94.47;102148.66;4937779;29;20216;-76
2023/01/03 07:32:32;;;;;;;10.20;4.88;;;;;;;4.67;94.39;102145.25;4954460;28;20204;-75
2023/01/03 07:35:03;;;;;;;12.98;5.80;;;;;;;4.62;94.52;102153.69;4938545;28;20713;-73
2023/01/03 07:37:35;;;;;;;8.85;4.38;;;;;;;4.46;95.52;102150.63;4951877;28;20215;-74
2023/01/03 07:40:10;;;;;;;13.13;5.40;;;;;;;4.55;95.67;102147.16;4956038;28;20227;-76
2023/01/03 07:45:31;;;;;;;7.72;4.72;;;;;;;4.57;95.09;102163.13;4947755;28;20733;-72
2023/01/03 07:48:05;;;;;;;8.93;5.68;;;;;;;4.56;95.62;102164.94;4926235;29;20211;-73
2023/01/03 07:50:36;;;;;;;9.77;4.65;;;;;;;4.56;95.39;102161.41;4956274;28;20187;-74
2023/01/03 07:53:15;;;;;;;9.05;4.00;;;;;;;4.64;95.24;102156.25;4956007;29;20275;-74
2023/01/03 07:55:53;;;;;;;6.88;3.58;;;;;;;4.68;94.95;102169.28;4963101;28;20218;-72
2023/01/03 07:58:28;;;;;;;5.80;4.47;;;;;;;4.72;94.77;102159.97;4939245;29;20226;-74
2023/01/03 08:01:05;;;;;;;9.48;4.97;;;;;;;4.88;93.94;102169.38;4940562;28;20219;-75
2023/01/03 08:03:36;;;;;;;10.57;6.28;;;;;;;4.90;92.95;102157.50;4938575;28;20204;-73
2023/01/03 08:06:08;;;;;;;7.07;5.35;;;;;;;4.93;92.81;102159.09;4939596;29;20311;-75
2023/01/03 08:08:39;;;;;;;9.57;4.63;;;;;;;4.96;92.52;102169.53;4939601;28;20207;-74
2023/01/03 08:14:00;;;;;;;9.15;4.80;;;;;;;5.13;90.65;102182.31;4943313;28;20201;-73
2023/01/03 08:16:31;;;;;;;7.32;4.63;;;;;;;5.15;90.65;102180.34;4951404;28;20206;-73
2023/01/03 08:19:02;;;;;;;6.00;4.80;;;;;;;5.16;90.26;102187.41;4932944;29;20595;-73
2023/01/03 08:21:32;;;;;;;5.70;5.10;;;;;;;5.40;89.85;102176.31;4942848;28;20274;-76
2023/01/03 08:24:06;;;;;;;6.00;4.05;;;;;;;5.59;88.10;102179.03;4954873;28;20200;-76
2023/01/03 08:26:37;;;;;;;8.90;4.30;;;;;;;5.57;87.32;102189.91;4937067;28;20204;-73
2023/01/03 08:29:09;;;;;;;4.60;3.90;;;;;;;5.61;87.37;102196.75;4958176;28;20251;-72
2023/01/03 08:31:42;;;;;;;10.00;4.68;;;;;;;5.71;86.31;102195.91;4942844;28;20212;-73
2023/01/03 08:34:13;;;;;;;7.97;3.92;;;;;;;5.69;86.22;102196.88;4946234;29;20227;-74
2023/01/03 08:36:55;;;;;;;6.70;4.18;;;;;;;5.67;85.19;102206.91;4962073;29;20204;-73
2023/01/03 08:39:29;;;;;;;7.15;3.70;;;;;;;5.79;84.32;102204.94;4953428;28;20226;-71
2023/01/03 08:42:02;;;;;;;13.13;4.50;;;;;;;5.82;84.98;102209.19;4937294;28;20212;-73
2023/01/03 08:44:34;;;;;;;5.05;3.85;;;;;;;5.88;83.69;102211.34;4941251;28;20323;-73
2023/01/03 08:47:07;;;;;;;5.10;3.80;;;;;;;5.80;83.84;102208.50;4939010;29;20196;-73
2023/01/03 08:49:39;;;;;;;5.55;3.45;;;;;;;5.91;83.67;102209.22;4932272;28;20195;-73
2023/01/03 08:52:13;;;;;;;10.40;3.90;;;;;;;6.00;83.47;102205.69;4936721;29;20202;-71
2023/01/03 08:54:44;;;;;;;4.43;3.50;;;;;;;6.03;82.92;102201.91;4938527;28;21475;-71
2023/01/03 08:57:15;;;;;;;6.90;3.13;;;;;;;6.12;82.59;102211.78;4944193;28;20198;-73
2023/01/03 08:59:55;;;;;;;4.30;3.90;;;;;;;6.19;82.20;102212.94;4939154;28;20207;-72
2023/01/03 09:02:25;;;;;;;6.85;4.25;;;;;;;6.27;81.89;102215.75;4946269;28;20270;-73
2023/01/03 09:04:57;;;;;;;9.10;2.97;;;;;;;6.25;81.98;102227.63;4937631;29;20216;-73
2023/01/03 09:07:27;;;;;;;4.30;3.25;;;;;;;6.24;82.12;102231.34;4937534;29;20670;-71
2023/01/03 09:09:58;;;;;;;9.98;3.33;;;;;;;6.27;81.50;102236.41;4952166;28;20714;-73
2023/01/03 09:12:29;;;;;;;5.03;3.35;;;;;;;6.28;81.90;102238.97;4943906;28;20240;-74
2023/01/03 09:15:02;;;;;;;4.82;3.70;;;;;;;6.38;80.88;102239.81;4937321;29;20211;-74
2023/01/03 09:17:33;;;;;;;16.75;4.90;;;;;;;6.36;80.54;102240.94;4946377;28;20232;-74
2023/01/03 09:20:04;;;;;;;9.88;3.80;;;;;;;6.43;80.17;102245.63;4952406;28;20211;-73
2023/01/03 09:22:37;;;;;;;12.35;4.22;;;;;;;6.43;79.09;102252.84;4937937;28;20219;-70
2023/01/03 09:25:09;;;;;;;11.48;3.58;;;;;;;6.51;79.09;102255.66;4935703;29;20212;-73
2023/01/03 09:27:44;;;;;;;3.53;2.88;;;;;;;6.54;78.17;102250.81;4953529;29;20199;-73
2023/01/03 09:30:18;;;;;;;6.43;3.60;;;;;;;6.67;77.53;102257.75;4963302;28;20264;-72
2023/01/03 09:32:51;;;;;;;6.97;3.65;;;;;;;6.61;78.03;102261.03;4948940;28;20196;-74
2023/01/03 09:35:23;;;;;;;8.20;4.03;;;;;;;6.56;77.43;102258.75;4932354;29;20223;-73
2023/01/03 09:37:55;;;;;;;9.57;3.35;;;;;;;6.70;77.38;102262.84;4938399;29;20204;-73
2023/01/03 09:40:26;;;;;;;8.82;4.63;;;;;;;6.61;77.28;102261.03;4947504;28;20745;-74
2023/01/03 09:43:14;;;;;;;3.97;3.10;;;;;;;6.66;77.40;102261.44;4936076;29;20207;-72
2023/01/03 09:45:57;;;;;;;9.02;3.55;;;;;;;6.77;77.22;102264.84;4935950;28;20251;-73
2023/01/03 09:48:35;;;;;;;7.03;4.13;;;;;;;6.72;77.20;102268.94;4935072;29;20203;-71
2023/01/03 10:06:05;;;;;;;3.97;3.17;;;;;;;6.95;75.49;102259.53;4934048;28;20243;-73
2023/01/03 10:08:53;;;;;;;6.85;3.65;;;;;;;7.00;75.17;102257.28;4931249;29;20250;-74
2023/01/03 10:11:32;;;;;;;16.60;5.03;;;;;;;7.01;75.50;102252.75;4933045;29;20199;-73
2023/01/03 10:14:15;;;;;;;6.75;4.75;;;;;;;7.11;75.12;102261.63;4932463;29;20192;-73
2023/01/03 10:16:57;;;;;;;7.72;4.80;;;;;;;7.25;74.76;102262.00;4949449;28;20196;-74
2023/01/03 10:19:52;;;;;;;9.02;5.72;;;;;;;7.40;74.31;102260.53;4941229;28;20207;-72
2023/01/03 10:22:25;;;;;;;5.45;3.42;;;;;;;7.36;74.14;102256.41;4934253;29;20188;-74
2023/01/03 10:25:01;;;;;;;10.43;4.25;;;;;;;7.27;74.46;102257.31;4945984;28;20236;-74
2023/01/03 10:27:33;;;;;;;3.53;2.97;;;;;;;7.19;74.56;102257.22;4950312;28;20195;-73
2023/01/03 10:30:07;;;;;;;7.90;4.20;;;;;;;7.11;75.33;102264.31;4936944;29;20527;-73
2023/01/03 10:33:17;;;;;;;5.65;3.22;;;;;;;7.15;74.67;102271.97;4954831;29;20196;-74
2023/01/03 10:35:51;;;;;;;7.38;3.85;;;;;;;7.46;74.19;102267.16;4940848;28;20243;-75
2023/01/03 10:38:24;;;;;;;12.43;4.75;;;;;;;7.72;73.71;102267.31;4953266;28;20187;-75
2023/01/03 10:40:57;;;;;;;4.88;3.60;;;;;;;7.75;73.22;102258.91;4987991;23;20630;-69
2023/01/03 10:43:32;;;;;;;11.20;4.55;;;;;;;7.85;72.97;102265.09;4950092;28;20216;-70
2023/01/03 10:46:04;;;;;;;8.93;3.95;;;;;;;7.71;73.52;102268.31;4953332;29;20655;-70
2023/01/03 10:48:40;;;;;;;7.40;3.97;;;;;;;7.80;73.82;102262.00;4950368;28;20229;-72
2023/01/03 10:51:35;;;;;;;5.95;3.75;;;;;;;7.92;72.98;102260.81;4945492;28;20666;-72
2023/01/03 10:54:21;;;;;;;4.85;4.18;;;;;;;7.76;73.10;102260.63;4951766;28;20218;-70
2023/01/03 10:56:51;;;;;;;9.60;4.85;;;;;;;7.50;74.29;102265.03;4946583;28;20211;-71
2023/01/03 10:59:25;;;;;;;12.02;5.45;;;;;;;7.51;74.46;102261.31;4951138;29;20247;-72
2023/01/03 11:02:00;;;;;;;11.10;5.30;;;;;;;7.35;75.05;102262.81;4950122;28;20279;-70
2023/01/03 11:04:31;;;;;;;5.35;4.68;;;;;;;7.48;75.39;102265.16;4949055;28;20266;-73
2023/01/03 11:07:11;;;;;;;7.40;4.40;;;;;;;7.36;74.42;102267.19;4951475;28;20215;-71
2023/01/03 11:09:46;;;;;;;9.05;5.40;;;;;;;7.46;74.83;102264.47;4951439;28;20187;-70
2023/01/03 11:12:27;;;;;;;9.95;6.22;;;;;;;7.56;74.60;102262.56;4948423;29;20283;-71
2023/01/03 11:14:59;;;;;;;9.32;4.70;;;;;;;7.53;74.03;102260.19;4948620;28;20268;-71
2023/01/03 11:17:34;;;;;;;8.63;4.70;;;;;;;7.29;74.68;102263.41;4948934;28;20227;-70
2023/01/03 11:20:17;;;;;;;6.13;5.50;;;;;;;7.28;74.96;102261.69;4949748;28;20219;-70
2023/01/03 11:22:54;;;;;;;11.07;5.53;;;;;;;7.29;75.00;102274.19;4956838;28;20187;-71
2023/01/03 11:25:39;;;;;;;11.60;4.70;;;;;;;7.15;75.60;102271.13;4954447;28;20215;-71
2023/01/03 11:28:54;;;;;;;6.88;4.20;;;;;;;7.33;74.82;102253.19;4956324;28;20230;-70
2023/01/03 11:31:42;;;;;;;11.40;5.32;;;;;;;7.32;74.39;102255.03;4957668;28;20196;-71
2023/01/03 11:34:38;;;;;;;13.48;6.65;;;;;;;7.29;75.26;102263.41;4954461;28;20212;-71
2023/01/03 11:37:37;;;;;;;8.35;6.07;;;;;;;7.42;74.15;102261.22;4937934;29;20196;-70
2023/01/03 11:40:25;;;;;;;8.63;5.00;;;;;;;7.32;74.69;102246.94;4956404;28;20749;-71
2023/01/03 11:43:09;;;;;;;10.65;4.85;;;;;;;7.21;74.35;102263.28;4954305;28;20227;-71
2023/01/03 11:45:53;;;;;;;14.25;6.68;;;;;;;7.29;74.23;102260.72;4956085;28;20297;-71
2023/01/03 11:48:56;;;;;;;12.07;7.25;;;;;;;7.29;74.07;102260.72;4957352;28;20196;-72
2023/01/03 11:51:33;;;;;;;7.32;5.15;;;;;;;7.33;73.67;102258.56;4955652;29;20566;-71
2023/01/03 11:54:32;;;;;;;10.07;6.05;;;;;;;7.61;73.75;102265.66;4960185;29;20192;-72
2023/01/03 11:57:13;;;;;;;8.18;5.05;;;;;;;7.53;73.68;102259.34;4961175;28;20192;-72
2023/01/03 12:00:08;;;;;;;9.57;5.00;;;;;;;7.66;72.54;102262.53;4974233;29;20188;-73
2023/01/03 12:03:10;;;;;;;10.82;5.72;;;;;;;7.71;73.17;102268.31;4957984;29;20275;-70
2023/01/03 12:05:49;;;;;;;5.20;4.70;;;;;;;7.67;72.75;102266.91;4962621;28;20753;-70
2023/01/03 12:08:46;;;;;;;8.10;5.57;;;;;;;7.84;72.26;102264.25;4939839;29;20222;-72
2023/01/03 12:11:54;;;;;;;6.05;4.78;;;;;;;7.87;71.65;102257.72;4952641;29;20251;-70
2023/01/03 12:14:31;;;;;;;6.50;4.70;;;;;;;7.92;69.92;102250.03;4927955;29;20259;-72
2023/01/03 12:17:07;;;;;;;5.40;3.63;;;;;;;7.82;68.69;102254.63;4939568;28;20629;-73
2023/01/03 12:19:43;;;;;;;5.30;2.85;;;;;;;7.70;68.07;102255.81;4955710;28;20187;-71
2023/01/03 12:22:21;;;;;;;6.32;2.53;;;;;;;7.38;68.04;102257.13;4955805;29;20345;-73
2023/01/03 12:24:55;;;;;;;12.73;3.67;;;;;;;7.09;69.05;102261.78;4954710;28;20228;-72
2023/01/03 12:27:36;;;;;;;6.30;3.63;;;;;;;7.20;69.07;102264.28;4954124;28;20205;-73
2023/01/03 12:30:23;;;;;;;6.60;3.53;;;;;;;7.40;68.83;102267.75;4955554;28;20208;-70
2023/01/03 12:32:56;;;;;;;10.68;3.35;;;;;;;7.59;68.13;102262.28;4955085;28;20196;-73
2023/01/03 12:35:31;;;;;;;6.63;3.30;;;;;;;7.68;67.88;102252.44;4955449;28;20235;-71
2023/01/03 12:38:01;;;;;;;9.77;3.42;;;;;;;7.57;67.42;102250.78;4955119;29;20219;-71
2023/01/03 12:40:39;;;;;;;6.53;3.20;;;;;;;7.39;68.17;102252.59;4956461;28;20263;-69
2023/01/03 12:43:16;;;;;;;3.90;2.78;;;;;;;7.09;69.44;102251.00;4951224;29;20602;-73
2023/01/03 12:45:51;;;;;;;6.18;3.50;;;;;;;7.04;69.76;102252.44;4937494;29;20242;-72
2023/01/03 12:48:48;;;;;;;3.38;2.53;;;;;;;6.96;70.23;102250.47;4934432;29;20206;-69
2023/01/03 12:51:20;;;;;;;3.97;3.40;;;;;;;6.82;70.84;102256.31;4956681;29;20188;-72
2023/01/03 12:53:57;;;;;;;8.13;3.22;;;;;;;6.63;71.49;102249.13;4955466;29;20196;-73
2023/01/03 12:56:50;;;;;;;5.18;3.45;;;;;;;6.65;71.76;102247.13;4955634;29;20642;-70
2023/01/03 12:59:41;;;;;;;7.53;3.58;;;;;;;6.59;71.82;102247.72;4952174;29;20210;-71
2023/01/03 13:02:22;;;;;;;4.22;2.75;;;;;;;6.74;71.99;102248.97;4955927;29;20188;-70
2023/01/03 13:04:56;;;;;;;6.75;4.47;;;;;;;6.70;72.17;102254.78;4953118;28;20224;-72
2023/01/03 13:07:29;;;;;;;4.78;3.42;;;;;;;6.62;72.16;102257.34;4955756;29;20192;-73
2023/01/03 13:10:02;;;;;;;11.05;3.03;;;;;;;6.62;72.85;102246.59;4956342;29;20580;-73